< < Back
Terminal Aerodrome Forecast


Current Version              Previous Versions:   1  2  3  4  5  6  7  8  9  

Terminal Aerodrome Forecast

134
FTUS42 KFFC 312300 RRA
TAFMCN
TAF
KMCN 312342Z 0100/0124 03004KT P6SM VCSH BKN040
     FM010100 07006KT P6SM BKN050
     FM010500 05005KT P6SM BKN018
     FM010800 06003KT P6SM BKN007
     FM011500 06005KT P6SM BKN015 BKN025
     FM011700 04004KT P6SM BKN045 PROB30 0117/0123 4SM -SHRA BR=

Latest METAR

435
SAUS80 KWBC 010200 RRD
MTRMCN
METAR KMCN 010153Z AUTO 06009KT 10SM BKN075 23/21 A3004 RMK AO2 SLP166
T02330206 TSNO $


USA.gov is the U.S. government's official web portal to all federal, state and local government web resources and services.